createdAt,value
2022-12-06T00:01:35.183Z,8.10
2022-12-06T00:04:04.056Z,7.93
2022-12-06T00:06:32.456Z,8.25
2022-12-06T00:08:59.633Z,8.57
2022-12-06T00:11:28.230Z,7.63
2022-12-06T00:13:56.423Z,7.50
2022-12-06T00:16:23.390Z,7.85
2022-12-06T00:18:50.437Z,7.82
2022-12-06T00:21:17.178Z,7.75
2022-12-06T00:23:45.525Z,7.82
2022-12-06T00:26:12.897Z,7.03
2022-12-06T00:28:39.817Z,7.72
2022-12-06T00:31:08.727Z,8.50
2022-12-06T00:33:36.232Z,8.73
2022-12-06T00:36:05.459Z,7.60
2022-12-06T00:38:32.561Z,7.82
2022-12-06T00:41:04.835Z,7.45
2022-12-06T00:43:32.058Z,7.60
2022-12-06T00:45:59.334Z,7.72
2022-12-06T00:48:26.342Z,9.23
2022-12-06T00:50:53.288Z,7.13
2022-12-06T00:53:20.293Z,8.32
2022-12-06T00:55:47.141Z,8.05
2022-12-06T00:58:13.990Z,8.07
2022-12-06T01:00:41.136Z,7.15
2022-12-06T01:03:08.168Z,6.68
2022-12-06T01:05:39.581Z,7.05
2022-12-06T01:08:06.596Z,7.68
2022-12-06T01:10:33.482Z,7.35
2022-12-06T01:13:00.410Z,8.38
2022-12-06T01:15:27.378Z,8.02
2022-12-06T01:17:54.216Z,7.82
2022-12-06T01:20:21.092Z,8.40
2022-12-06T01:22:47.988Z,9.00
2022-12-06T01:25:14.895Z,7.80
2022-12-06T01:27:41.753Z,7.85
2022-12-06T01:30:08.900Z,8.07
2022-12-06T01:32:35.770Z,8.77
2022-12-06T01:35:02.633Z,7.93
2022-12-06T01:37:29.520Z,10.20
2022-12-06T01:39:56.411Z,8.25
2022-12-06T01:42:23.471Z,9.68
2022-12-06T01:44:52.208Z,9.30
2022-12-06T01:47:29.717Z,9.18
2022-12-06T01:50:09.464Z,9.68
2022-12-06T01:52:58.034Z,11.68
2022-12-06T01:55:27.698Z,8.85
2022-12-06T01:57:57.255Z,10.23
2022-12-06T02:00:24.347Z,9.45
2022-12-06T02:02:51.582Z,9.25
2022-12-06T02:05:18.543Z,10.00
2022-12-06T02:07:45.408Z,10.38
2022-12-06T02:10:12.972Z,10.27
2022-12-06T02:12:39.868Z,11.75
2022-12-06T02:15:07.238Z,12.18
2022-12-06T02:18:01.962Z,12.25
2022-12-06T02:20:36.478Z,13.70
2022-12-06T02:23:30.797Z,14.48
2022-12-06T02:26:03.851Z,12.27
2022-12-06T02:28:49.367Z,13.05
2022-12-06T02:31:22.942Z,14.30
2022-12-06T02:34:11.345Z,14.30
2022-12-06T02:36:44.171Z,13.80
2022-12-06T02:39:27.488Z,15.38
2022-12-06T02:42:18.825Z,16.48
2022-12-06T02:44:48.212Z,15.82
2022-12-06T02:47:15.099Z,16.40
2022-12-06T02:49:46.344Z,17.90
2022-12-06T02:52:13.573Z,20.92
2022-12-06T02:54:40.822Z,20.55
2022-12-06T02:57:07.688Z,21.60
2022-12-06T02:59:34.578Z,21.52
2022-12-06T03:02:02.727Z,19.75
2022-12-06T03:04:46.116Z,20.92
2022-12-06T03:07:19.818Z,21.85
2022-12-06T03:10:00.133Z,18.90
2022-12-06T03:12:27.289Z,19.05
2022-12-06T03:15:14.963Z,17.65
2022-12-06T03:17:52.655Z,18.08
2022-12-06T03:20:21.600Z,18.13
2022-12-06T03:22:51.191Z,19.55
2022-12-06T03:25:18.146Z,18.92
2022-12-06T03:27:45.632Z,19.63
2022-12-06T03:30:13.246Z,21.10
2022-12-06T03:32:41.683Z,18.83
2022-12-06T03:35:09.783Z,19.40
2022-12-06T03:37:36.913Z,21.38
2022-12-06T03:40:11.938Z,20.02
2022-12-06T03:42:38.819Z,19.98
2022-12-06T03:45:06.245Z,20.05
2022-12-06T03:48:08.579Z,21.00
2022-12-06T03:50:38.980Z,21.35
2022-12-06T03:53:05.853Z,22.30
2022-12-06T03:55:32.731Z,19.45
2022-12-06T03:57:59.644Z,19.35
2022-12-06T04:00:26.543Z,21.63
2022-12-06T04:02:53.443Z,21.92
2022-12-06T04:05:20.372Z,20.95
2022-12-06T04:07:47.439Z,21.65
2022-12-06T04:10:14.415Z,21.92
2022-12-06T04:13:00.095Z,21.27
2022-12-06T04:15:32.358Z,24.52
2022-12-06T04:18:13.497Z,23.02
2022-12-06T04:21:06.111Z,23.92
2022-12-06T04:23:37.240Z,21.92
2022-12-06T04:26:05.174Z,23.00
2022-12-06T04:28:50.973Z,23.75
2022-12-06T04:31:36.638Z,22.83
2022-12-06T04:34:22.066Z,22.50
2022-12-06T04:37:07.807Z,22.35
2022-12-06T04:39:34.866Z,22.85
2022-12-06T04:42:20.688Z,26.40
2022-12-06T04:44:47.690Z,27.60
2022-12-06T04:47:16.259Z,30.92
2022-12-06T04:49:43.285Z,28.65
2022-12-06T04:52:10.505Z,40.80
2022-12-06T04:54:37.730Z,30.67
2022-12-06T04:57:04.883Z,29.25
2022-12-06T04:59:32.000Z,29.58
2022-12-06T05:01:59.275Z,31.23
2022-12-06T05:04:26.457Z,34.83
2022-12-06T05:06:53.634Z,31.70
2022-12-06T05:09:20.905Z,30.05
2022-12-06T05:11:47.958Z,31.65
2022-12-06T05:14:15.041Z,32.72
2022-12-06T05:16:42.063Z,29.58
2022-12-06T05:19:10.065Z,27.27
2022-12-06T05:21:37.051Z,31.70
2022-12-06T05:24:04.206Z,29.17
2022-12-06T05:26:31.214Z,29.52
2022-12-06T05:28:58.330Z,30.58
2022-12-06T05:31:25.930Z,28.70
2022-12-06T05:33:53.196Z,27.08
2022-12-06T05:36:24.943Z,26.63
2022-12-06T05:38:52.141Z,28.85
2022-12-06T05:41:20.091Z,26.38
2022-12-06T05:43:47.165Z,28.67
2022-12-06T05:46:14.404Z,26.75
2022-12-06T05:48:41.773Z,27.13
2022-12-06T05:51:08.843Z,27.65
2022-12-06T05:53:36.038Z,28.00
2022-12-06T05:56:10.554Z,28.73
2022-12-06T05:58:37.895Z,25.63
2022-12-06T06:01:06.023Z,26.73
2022-12-06T06:03:33.250Z,25.63
2022-12-06T06:06:00.985Z,26.85
2022-12-06T06:08:28.381Z,26.92
2022-12-06T06:10:55.564Z,25.38
2022-12-06T06:13:22.702Z,26.88
2022-12-06T06:15:50.129Z,40.60
2022-12-06T06:18:17.782Z,34.08
2022-12-06T06:20:55.314Z,35.28
2022-12-06T06:23:22.538Z,27.65
2022-12-06T06:25:49.682Z,28.77
2022-12-06T06:28:17.074Z,27.45
2022-12-06T06:30:44.301Z,27.48
2022-12-06T06:33:11.483Z,26.98
2022-12-06T06:35:38.419Z,28.48
2022-12-06T06:38:05.380Z,24.35
2022-12-06T06:40:32.471Z,19.58
2022-12-06T06:43:18.591Z,21.02
2022-12-06T06:45:56.138Z,21.00
2022-12-06T06:48:23.877Z,20.23
2022-12-06T06:50:56.665Z,17.95
2022-12-06T06:53:26.557Z,19.37
2022-12-06T06:55:54.292Z,17.27
2022-12-06T06:58:21.350Z,17.65
2022-12-06T07:00:56.054Z,16.75
2022-12-06T07:03:23.416Z,14.68
2022-12-06T07:06:01.551Z,14.90
2022-12-06T07:08:29.198Z,15.52
2022-12-06T07:10:56.226Z,13.30
2022-12-06T07:13:24.652Z,13.43
2022-12-06T07:15:51.696Z,13.80
2022-12-06T07:18:19.248Z,11.48
2022-12-06T07:20:46.495Z,13.15
2022-12-06T07:23:13.887Z,12.73
2022-12-06T07:25:42.107Z,10.95
2022-12-06T07:28:09.217Z,9.93
2022-12-06T07:30:36.251Z,9.75
2022-12-06T07:33:03.348Z,8.77
2022-12-06T07:35:48.846Z,9.55
2022-12-06T07:38:17.527Z,10.55
2022-12-06T07:43:50.346Z,9.88
2022-12-06T07:46:17.485Z,8.90
2022-12-06T07:48:44.506Z,8.30
2022-12-06T07:51:11.603Z,7.47
2022-12-06T07:53:38.705Z,7.38
2022-12-06T07:56:07.337Z,6.90
2022-12-06T07:58:34.344Z,6.30
2022-12-06T08:01:03.531Z,6.35
2022-12-06T08:03:30.514Z,6.35
2022-12-06T08:05:57.650Z,7.47
2022-12-06T08:08:28.499Z,6.80
2022-12-06T08:11:00.232Z,6.40
2022-12-06T08:13:27.832Z,5.60
2022-12-06T08:15:54.919Z,5.30
2022-12-06T08:18:22.111Z,5.50
2022-12-06T08:20:49.125Z,6.32
2022-12-06T08:23:16.056Z,4.75
2022-12-06T08:25:43.009Z,5.88
2022-12-06T08:28:10.026Z,4.45
2022-12-06T08:30:40.453Z,7.72
2022-12-06T08:33:07.474Z,5.95
2022-12-06T08:35:37.006Z,5.88
2022-12-06T08:38:03.966Z,6.82
2022-12-06T08:40:31.919Z,4.30
2022-12-06T08:42:58.942Z,5.85
2022-12-06T08:45:26.007Z,5.80
2022-12-06T08:47:53.007Z,7.25
2022-12-06T08:50:20.994Z,4.72
2022-12-06T08:52:48.038Z,5.47
2022-12-06T08:55:15.035Z,5.47
2022-12-06T08:57:42.584Z,10.23
2022-12-06T09:00:10.394Z,5.45
2022-12-06T09:02:40.746Z,4.97
2022-12-06T09:05:08.499Z,7.88
2022-12-06T09:07:35.708Z,4.20
2022-12-06T09:10:03.018Z,6.45
2022-12-06T09:12:30.366Z,3.63
2022-12-06T09:14:58.442Z,3.88
2022-12-06T09:17:25.337Z,6.63
2022-12-06T09:19:52.334Z,4.53
2022-12-06T09:22:19.327Z,5.53
2022-12-06T09:24:46.287Z,5.15
2022-12-06T09:27:13.295Z,4.00
2022-12-06T09:29:40.969Z,3.65
2022-12-06T09:32:08.013Z,4.78
2022-12-06T09:34:35.441Z,5.28
2022-12-06T09:37:07.619Z,3.30
2022-12-06T09:39:39.618Z,3.08
2022-12-06T09:42:37.463Z,4.93
2022-12-06T09:45:23.944Z,2.85
2022-12-06T09:48:10.521Z,2.70
2022-12-06T09:51:15.538Z,3.05
2022-12-06T09:53:57.894Z,3.10
2022-12-06T09:56:36.428Z,2.67
2022-12-06T09:59:28.350Z,2.42
2022-12-06T10:02:07.458Z,2.22
2022-12-06T10:05:03.690Z,2.70
2022-12-06T10:07:50.577Z,2.22
2022-12-06T10:10:31.290Z,2.05
2022-12-06T10:13:27.648Z,2.47
2022-12-06T10:16:11.968Z,2.03
2022-12-06T10:19:06.330Z,2.40
2022-12-06T10:22:07.307Z,2.33
2022-12-06T10:24:46.429Z,2.63
2022-12-06T10:27:23.827Z,2.15
2022-12-06T10:29:59.118Z,2.00
2022-12-06T10:32:33.565Z,2.13
2022-12-06T10:35:22.793Z,2.03
2022-12-06T10:37:58.986Z,1.70
2022-12-06T10:40:49.030Z,2.70
2022-12-06T10:43:26.087Z,2.08
2022-12-06T10:46:23.847Z,2.15
2022-12-06T10:49:06.131Z,3.63
2022-12-06T10:52:11.485Z,1.75
2022-12-06T10:54:58.527Z,4.85
2022-12-06T10:57:46.409Z,2.58
2022-12-06T11:00:24.648Z,3.38
2022-12-06T11:03:00.644Z,1.83
2022-12-06T11:05:31.928Z,2.47
2022-12-06T11:08:07.272Z,2.05
2022-12-06T11:10:34.577Z,2.92
2022-12-06T11:13:17.067Z,1.98
2022-12-06T11:16:23.157Z,2.58
2022-12-06T11:18:50.260Z,4.22
2022-12-06T11:21:40.580Z,3.60
2022-12-06T11:24:28.632Z,3.00
2022-12-06T11:27:01.190Z,2.30
2022-12-06T11:29:28.245Z,3.17
2022-12-06T11:31:57.111Z,2.80
2022-12-06T11:34:46.543Z,3.17
2022-12-06T11:37:18.221Z,3.97
2022-12-06T11:39:45.238Z,2.60
2022-12-06T11:42:13.617Z,2.72
2022-12-06T11:44:50.035Z,2.70
2022-12-06T11:47:22.003Z,3.00
2022-12-06T11:49:49.582Z,2.47
2022-12-06T11:52:33.992Z,2.75
2022-12-06T11:55:16.103Z,2.05
2022-12-06T11:57:46.633Z,3.15
2022-12-06T12:00:17.914Z,2.58
2022-12-06T12:02:46.264Z,2.22
2022-12-06T12:05:34.454Z,2.35
2022-12-06T12:08:20.656Z,2.35
2022-12-06T12:10:47.796Z,2.03
2022-12-06T12:13:38.706Z,2.47
2022-12-06T12:16:20.583Z,1.60
2022-12-06T12:19:22.562Z,2.45
2022-12-06T12:21:54.025Z,2.22
2022-12-06T12:27:34.620Z,2.42
2022-12-06T12:30:20.262Z,1.60
2022-12-06T12:32:47.906Z,5.47
2022-12-06T12:35:21.279Z,4.78
2022-12-06T12:37:55.767Z,2.73
2022-12-06T12:43:26.035Z,3.95
2022-12-06T12:46:12.229Z,6.70
2022-12-06T12:48:40.243Z,3.13
2022-12-06T12:51:22.076Z,3.55
2022-12-06T12:53:54.021Z,3.47
2022-12-06T12:56:21.336Z,3.03
2022-12-06T12:58:50.434Z,2.78
2022-12-06T13:01:37.570Z,1.63
2022-12-06T13:04:11.755Z,2.22
2022-12-06T13:06:47.007Z,2.00
2022-12-06T13:09:24.422Z,2.60
2022-12-06T13:12:03.071Z,2.90
2022-12-06T13:14:30.016Z,2.80
2022-12-06T13:16:58.546Z,2.55
2022-12-06T13:19:31.651Z,2.40
2022-12-06T13:21:58.626Z,2.88
2022-12-06T13:24:27.422Z,3.35
2022-12-06T13:27:00.548Z,2.20
2022-12-06T13:29:33.877Z,3.63
2022-12-06T13:32:13.474Z,2.28
2022-12-06T13:34:43.887Z,2.30
2022-12-06T13:37:26.980Z,6.20
2022-12-06T13:39:54.021Z,4.25
2022-12-06T13:42:28.140Z,3.35
2022-12-06T13:44:59.869Z,3.15
2022-12-06T13:47:26.777Z,2.58
2022-12-06T13:49:54.246Z,2.70
2022-12-06T13:52:42.774Z,2.72
2022-12-06T13:55:25.006Z,4.30
2022-12-06T13:57:55.235Z,1.95
2022-12-06T14:00:30.763Z,3.17
2022-12-06T14:03:15.968Z,2.75
2022-12-06T14:06:15.218Z,3.45
2022-12-06T14:08:44.596Z,3.03
2022-12-06T14:11:27.310Z,4.10
2022-12-06T14:14:00.367Z,2.47
2022-12-06T14:16:31.862Z,2.88
2022-12-06T14:18:59.314Z,3.70
2022-12-06T14:21:39.310Z,3.00
2022-12-06T14:24:06.508Z,2.42
2022-12-06T14:26:34.481Z,3.22
2022-12-06T14:29:01.585Z,2.72
2022-12-06T14:31:34.810Z,3.55
2022-12-06T14:34:02.056Z,2.47
2022-12-06T14:36:38.821Z,2.90
2022-12-06T14:39:15.817Z,2.45
2022-12-06T14:42:33.553Z,2.55
2022-12-06T14:45:02.519Z,2.63
2022-12-06T14:47:30.811Z,2.85
2022-12-06T14:50:17.730Z,2.85
2022-12-06T14:53:06.761Z,5.05
2022-12-06T14:55:37.136Z,3.88
2022-12-06T14:58:14.731Z,2.42
2022-12-06T15:00:52.037Z,2.63
2022-12-06T15:03:18.893Z,3.05
2022-12-06T15:05:49.923Z,2.67
2022-12-06T15:08:28.918Z,2.13
2022-12-06T15:11:04.618Z,3.05
2022-12-06T15:13:31.560Z,2.33
2022-12-06T15:16:08.411Z,2.67
2022-12-06T15:18:42.554Z,2.40
2022-12-06T15:21:17.149Z,3.85
2022-12-06T15:26:18.078Z,2.40
2022-12-06T15:28:44.934Z,2.22
2022-12-06T15:31:18.912Z,2.90
2022-12-06T15:33:46.128Z,2.72
2022-12-06T15:36:23.833Z,3.13
2022-12-06T15:38:50.865Z,2.45
2022-12-06T15:41:18.743Z,2.90
2022-12-06T15:43:46.184Z,2.67
2022-12-06T15:46:26.859Z,2.75
2022-12-06T15:48:54.056Z,2.80
2022-12-06T15:51:24.847Z,2.83
2022-12-06T15:53:51.758Z,2.47
2022-12-06T15:56:20.464Z,3.10
2022-12-06T15:58:47.505Z,2.70
2022-12-06T16:01:20.203Z,3.17
2022-12-06T16:03:47.564Z,2.80
2022-12-06T16:06:15.762Z,2.95
2022-12-06T16:08:42.716Z,2.90
2022-12-06T16:11:12.119Z,2.60
2022-12-06T16:13:39.551Z,2.60
2022-12-06T16:16:06.736Z,3.03
2022-12-06T16:18:33.753Z,3.13
2022-12-06T16:21:00.616Z,3.05
2022-12-06T16:24:12.640Z,3.35
2022-12-06T16:26:36.310Z,2.85
2022-12-06T16:29:04.839Z,2.88
2022-12-06T16:31:35.119Z,2.30
2022-12-06T16:34:04.855Z,3.60
2022-12-06T16:36:32.116Z,2.72
2022-12-06T16:39:02.002Z,3.13
2022-12-06T16:41:35.833Z,3.42
2022-12-06T16:44:02.944Z,3.23
2022-12-06T16:46:30.751Z,3.05
2022-12-06T16:49:10.654Z,2.92
2022-12-06T16:51:46.247Z,2.63
2022-12-06T16:54:13.266Z,2.88
2022-12-06T16:56:41.747Z,3.10
2022-12-06T16:59:14.092Z,2.38
2022-12-06T17:01:47.062Z,3.17
2022-12-06T17:04:13.945Z,2.70
2022-12-06T17:06:40.806Z,3.20
2022-12-06T17:09:07.694Z,2.83
2022-12-06T17:11:53.737Z,3.45
2022-12-06T17:14:22.424Z,3.65
2022-12-06T17:16:49.403Z,3.75
2022-12-06T17:19:20.513Z,2.95
2022-12-06T17:21:47.809Z,3.55
2022-12-06T17:24:15.147Z,3.55
2022-12-06T17:26:42.201Z,3.63
2022-12-06T17:29:09.244Z,3.22
2022-12-06T17:31:36.436Z,3.70
2022-12-06T17:34:03.616Z,3.42
2022-12-06T17:36:31.298Z,3.22
2022-12-06T17:38:58.171Z,3.42
2022-12-06T17:41:49.928Z,4.05
2022-12-06T17:44:18.601Z,4.00
2022-12-06T17:46:45.568Z,3.65
2022-12-06T17:49:17.068Z,3.33
2022-12-06T17:51:43.919Z,3.85
2022-12-06T17:54:10.846Z,3.47
2022-12-06T17:56:38.921Z,3.33
2022-12-06T17:59:10.625Z,4.80
2022-12-06T18:02:06.190Z,3.92
2022-12-06T18:04:24.634Z,3.63
2022-12-06T18:06:51.530Z,3.65
2022-12-06T18:09:18.383Z,3.20
2022-12-06T18:11:45.350Z,3.67
2022-12-06T18:14:12.636Z,3.60
2022-12-06T18:16:40.335Z,4.40
2022-12-06T18:19:09.611Z,4.30
2022-12-06T18:21:36.676Z,3.90
2022-12-06T18:24:22.130Z,3.25
2022-12-06T18:26:50.164Z,3.80
2022-12-06T18:29:19.216Z,3.65
2022-12-06T18:31:46.203Z,3.80
2022-12-06T18:34:13.264Z,4.03
2022-12-06T18:36:40.770Z,3.47
2022-12-06T18:39:14.368Z,4.43
2022-12-06T18:41:42.423Z,3.33
2022-12-06T18:44:09.611Z,4.03
2022-12-06T18:46:38.023Z,3.90
2022-12-06T18:49:04.920Z,3.50
2022-12-06T18:51:33.578Z,3.47
2022-12-06T18:54:05.074Z,3.78
2022-12-06T18:56:32.676Z,3.53
2022-12-06T18:59:00.816Z,3.88
2022-12-06T19:01:32.370Z,4.03
2022-12-06T19:04:00.957Z,3.97
2022-12-06T19:06:29.874Z,3.97
2022-12-06T19:08:58.005Z,3.90
2022-12-06T19:11:24.884Z,3.72
2022-12-06T19:13:55.597Z,4.30
2022-12-06T19:16:26.999Z,3.70
2022-12-06T19:18:55.227Z,3.58
2022-12-06T19:21:22.106Z,3.58
2022-12-06T19:23:54.810Z,4.75
2022-12-06T19:26:21.750Z,5.22
2022-12-06T19:28:48.641Z,3.80
2022-12-06T19:31:15.569Z,4.35
2022-12-06T19:33:43.620Z,4.03
2022-12-06T19:36:19.133Z,3.67
2022-12-06T19:38:46.099Z,4.15
2022-12-06T19:41:14.353Z,4.28
2022-12-06T19:43:59.844Z,4.32
2022-12-06T19:46:27.759Z,3.92
2022-12-06T19:48:59.222Z,3.92
2022-12-06T19:51:29.084Z,3.92
2022-12-06T19:53:57.884Z,4.40
2022-12-06T19:56:25.083Z,3.95
2022-12-06T19:58:51.948Z,4.13
2022-12-06T20:01:21.370Z,4.38
2022-12-06T20:03:48.389Z,4.00
2022-12-06T20:06:18.380Z,5.15
2022-12-06T20:08:45.806Z,4.55
2022-12-06T20:11:32.342Z,4.15
2022-12-06T20:14:02.843Z,4.78
2022-12-06T20:16:29.831Z,4.22
2022-12-06T20:18:56.981Z,4.32
2022-12-06T20:21:24.020Z,4.93
2022-12-06T20:23:50.865Z,3.92
2022-12-06T20:26:17.839Z,4.32
2022-12-06T20:28:45.350Z,4.07
2022-12-06T20:31:13.986Z,4.10
2022-12-06T20:33:41.016Z,4.53
2022-12-06T20:36:15.788Z,3.80
2022-12-06T20:41:09.846Z,4.65
2022-12-06T20:43:37.059Z,5.00
2022-12-06T20:46:13.169Z,4.90
2022-12-06T20:48:42.125Z,4.07
2022-12-06T20:51:10.741Z,3.95
2022-12-06T20:53:37.621Z,4.00
2022-12-06T20:56:08.961Z,4.55
2022-12-06T20:58:35.952Z,4.30
2022-12-06T21:01:03.126Z,4.57
2022-12-06T21:03:32.039Z,5.55
2022-12-06T21:06:03.519Z,4.43
2022-12-06T21:08:30.474Z,5.07
2022-12-06T21:11:21.724Z,4.90
2022-12-06T21:13:44.450Z,3.95
2022-12-06T21:16:16.978Z,4.22
2022-12-06T21:18:44.153Z,4.40
2022-12-06T21:21:11.359Z,4.00
2022-12-06T21:23:39.457Z,4.85
2022-12-06T21:26:06.457Z,4.60
2022-12-06T21:28:33.844Z,4.05
2022-12-06T21:31:01.454Z,4.00
2022-12-06T21:33:28.387Z,4.32
2022-12-06T21:35:55.300Z,5.25
2022-12-06T21:38:22.261Z,3.70
2022-12-06T21:40:53.073Z,4.10
2022-12-06T21:43:21.422Z,4.60
2022-12-06T21:45:48.302Z,4.30
2022-12-06T21:48:15.153Z,3.95
2022-12-06T21:50:42.034Z,4.40
2022-12-06T21:53:08.881Z,4.68
2022-12-06T21:55:38.072Z,4.13
2022-12-06T21:58:04.924Z,4.28
2022-12-06T22:00:31.769Z,3.78
2022-12-06T22:02:58.698Z,4.35
2022-12-06T22:05:25.641Z,4.03
2022-12-06T22:07:52.940Z,4.60
2022-12-06T22:10:19.921Z,4.45
2022-12-06T22:12:47.745Z,4.95
2022-12-06T22:15:14.691Z,5.20
2022-12-06T22:17:41.538Z,4.95
2022-12-06T22:20:08.541Z,6.03
2022-12-06T22:22:35.389Z,4.75
2022-12-06T22:25:02.563Z,4.68
2022-12-06T22:27:29.810Z,4.57
2022-12-06T22:29:56.683Z,4.88
2022-12-06T22:32:23.599Z,4.60
2022-12-06T22:34:50.516Z,4.72
2022-12-06T22:37:17.386Z,4.85
2022-12-06T22:39:44.218Z,4.93
2022-12-06T22:42:11.119Z,4.80
2022-12-06T22:44:37.983Z,5.70
2022-12-06T22:47:04.889Z,6.32
2022-12-06T22:49:31.841Z,4.63
2022-12-06T22:51:58.685Z,5.80
2022-12-06T22:54:25.527Z,4.25
2022-12-06T22:56:52.683Z,4.97
2022-12-06T22:59:20.920Z,5.10
2022-12-06T23:01:47.824Z,5.55
2022-12-06T23:04:14.817Z,5.93
2022-12-06T23:06:41.666Z,6.10
2022-12-06T23:09:08.688Z,4.40
2022-12-06T23:11:36.173Z,5.60
2022-12-06T23:14:04.478Z,5.53
2022-12-06T23:16:31.817Z,5.10
2022-12-06T23:18:59.947Z,6.07
2022-12-06T23:21:31.620Z,5.80
2022-12-06T23:24:00.026Z,5.32
2022-12-06T23:26:31.802Z,5.60
2022-12-06T23:28:58.806Z,5.70
2022-12-06T23:31:30.154Z,5.50
2022-12-06T23:33:58.749Z,6.35
2022-12-06T23:36:27.442Z,6.32
2022-12-06T23:38:54.530Z,7.32
2022-12-06T23:41:22.979Z,5.65
2022-12-06T23:43:50.806Z,5.65
2022-12-06T23:46:22.226Z,5.78
2022-12-06T23:48:50.516Z,5.95
2022-12-06T23:51:18.886Z,6.10
2022-12-06T23:53:45.742Z,6.85
2022-12-06T23:56:14.259Z,7.60
2022-12-06T23:58:41.430Z,6.38
